sensor_id;sensor_type;location;lat;lon;timestamp;pressure;altitude;pressure_sealevel;temperature;humidity
36062;BME280;22123;52.412;20.970;2024-02-14T00:00:24;101133.09;;;3.45;100.00
36062;BME280;22123;52.412;20.970;2024-02-14T00:02:50;101138.97;;;3.51;100.00
36062;BME280;22123;52.412;20.970;2024-02-14T00:05:16;101150.75;;;3.59;100.00
36062;BME280;22123;52.412;20.970;2024-02-14T00:07:43;101120.13;;;3.41;100.00
36062;BME280;22123;52.412;20.970;2024-02-14T00:10:09;101162.78;;;3.65;100.00
36062;BME280;22123;52.412;20.970;2024-02-14T00:12:36;101166.50;;;3.62;100.00
36062;BME280;22123;52.412;20.970;2024-02-14T00:15:03;101168.53;;;3.59;100.00
36062;BME280;22123;52.412;20.970;2024-02-14T00:17:29;101123.75;;;3.27;100.00
36062;BME280;22123;52.412;20.970;2024-02-14T00:19:55;101162.28;;;3.47;100.00
36062;BME280;22123;52.412;20.970;2024-02-14T00:22:21;101138.44;;;3.33;100.00
36062;BME280;22123;52.412;20.970;2024-02-14T00:24:47;101132.91;;;3.23;100.00
36062;BME280;22123;52.412;20.970;2024-02-14T00:27:13;101138.66;;;3.29;100.00
36062;BME280;22123;52.412;20.970;2024-02-14T00:29:39;101158.44;;;3.38;100.00
36062;BME280;22123;52.412;20.970;2024-02-14T00:32:05;101163.03;;;3.36;100.00
36062;BME280;22123;52.412;20.970;2024-02-14T00:34:31;101143.78;;;3.20;100.00
36062;BME280;22123;52.412;20.970;2024-02-14T00:36:57;101144.31;;;3.12;100.00
36062;BME280;22123;52.412;20.970;2024-02-14T00:39:22;101151.66;;;3.08;100.00
36062;BME280;22123;52.412;20.970;2024-02-14T00:41:48;101153.91;;;3.02;100.00
36062;BME280;22123;52.412;20.970;2024-02-14T00:44:15;101144.41;;;2.85;100.00
36062;BME280;22123;52.412;20.970;2024-02-14T00:46:41;101184.66;;;2.93;100.00
36062;BME280;22123;52.412;20.970;2024-02-14T00:49:07;101189.13;;;2.80;100.00
36062;BME280;22123;52.412;20.970;2024-02-14T00:51:33;101177.38;;;2.56;100.00
36062;BME280;22123;52.412;20.970;2024-02-14T00:53:58;101166.47;;;2.34;100.00
36062;BME280;22123;52.412;20.970;2024-02-14T00:56:24;101121.16;;;1.95;100.00
36062;BME280;22123;52.412;20.970;2024-02-14T00:58:50;101176.78;;;2.11;100.00
36062;BME280;22123;52.412;20.970;2024-02-14T01:01:16;101168.31;;;1.91;100.00
36062;BME280;22123;52.412;20.970;2024-02-14T01:03:42;101195.31;;;1.98;100.00
36062;BME280;22123;52.412;20.970;2024-02-14T01:06:08;101139.63;;;1.55;100.00
36062;BME280;22123;52.412;20.970;2024-02-14T01:08:34;101151.03;;;1.43;100.00
36062;BME280;22123;52.412;20.970;2024-02-14T01:11:00;101135.53;;;1.22;100.00
36062;BME280;22123;52.412;20.970;2024-02-14T01:13:25;101134.94;;;1.17;100.00
36062;BME280;22123;52.412;20.970;2024-02-14T01:15:51;101130.59;;;1.01;100.00
36062;BME280;22123;52.412;20.970;2024-02-14T01:18:17;101166.56;;;1.06;100.00
36062;BME280;22123;52.412;20.970;2024-02-14T01:20:43;101160.13;;;0.95;100.00
36062;BME280;22123;52.412;20.970;2024-02-14T01:23:09;101204.47;;;1.08;100.00
36062;BME280;22123;52.412;20.970;2024-02-14T01:25:35;101163.69;;;0.65;100.00
36062;BME280;22123;52.412;20.970;2024-02-14T01:28:01;101176.25;;;0.62;100.00
36062;BME280;22123;52.412;20.970;2024-02-14T01:30:27;101159.16;;;0.37;100.00
36062;BME280;22123;52.412;20.970;2024-02-14T01:32:52;101152.69;;;0.27;100.00
36062;BME280;22123;52.412;20.970;2024-02-14T01:35:18;101211.16;;;0.54;100.00
36062;BME280;22123;52.412;20.970;2024-02-14T01:37:44;101188.75;;;0.29;100.00
36062;BME280;22123;52.412;20.970;2024-02-14T01:40:10;101162.59;;;0.07;100.00
36062;BME280;22123;52.412;20.970;2024-02-14T01:42:36;101214.13;;;0.33;100.00
36062;BME280;22123;52.412;20.970;2024-02-14T01:45:03;101171.94;;;-0.02;100.00
36062;BME280;22123;52.412;20.970;2024-02-14T01:47:29;101144.38;;;-0.29;100.00
36062;BME280;22123;52.412;20.970;2024-02-14T01:49:55;101204.47;;;0.01;100.00
36062;BME280;22123;52.412;20.970;2024-02-14T01:52:20;101159.56;;;-0.33;100.00
36062;BME280;22123;52.412;20.970;2024-02-14T01:54:47;101175.94;;;-0.26;100.00
36062;BME280;22123;52.412;20.970;2024-02-14T01:57:13;101187.72;;;-0.32;100.00
36062;BME280;22123;52.412;20.970;2024-02-14T01:59:39;101179.72;;;-0.46;100.00
36062;BME280;22123;52.412;20.970;2024-02-14T02:02:05;101226.31;;;-0.28;100.00
36062;BME280;22123;52.412;20.970;2024-02-14T02:04:31;101225.81;;;-0.34;100.00
36062;BME280;22123;52.412;20.970;2024-02-14T02:06:57;101223.56;;;-0.42;100.00
36062;BME280;22123;52.412;20.970;2024-02-14T02:09:23;101177.78;;;-0.76;100.00
36062;BME280;22123;52.412;20.970;2024-02-14T02:11:50;101229.59;;;-0.56;100.00
36062;BME280;22123;52.412;20.970;2024-02-14T02:14:16;101184.41;;;-0.85;100.00
36062;BME280;22123;52.412;20.970;2024-02-14T02:16:43;101223.09;;;-0.66;100.00
36062;BME280;22123;52.412;20.970;2024-02-14T02:19:09;101179.91;;;-1.00;100.00
36062;BME280;22123;52.412;20.970;2024-02-14T02:21:36;101232.44;;;-0.77;100.00
36062;BME280;22123;52.412;20.970;2024-02-14T02:24:03;101203.38;;;-0.94;100.00
36062;BME280;22123;52.412;20.970;2024-02-14T02:26:29;101178.22;;;-1.19;100.00
36062;BME280;22123;52.412;20.970;2024-02-14T02:28:55;101197.94;;;-1.09;100.00
36062;BME280;22123;52.412;20.970;2024-02-14T02:31:21;101230.84;;;-0.97;100.00
36062;BME280;22123;52.412;20.970;2024-02-14T02:33:47;101201.06;;;-1.18;100.00
36062;BME280;22123;52.412;20.970;2024-02-14T02:36:14;101239.22;;;-1.06;100.00
36062;BME280;22123;52.412;20.970;2024-02-14T02:38:40;101209.47;;;-1.27;100.00
36062;BME280;22123;52.412;20.970;2024-02-14T02:41:05;101174.72;;;-1.54;100.00
36062;BME280;22123;52.412;20.970;2024-02-14T02:43:32;101194.47;;;-1.44;100.00
36062;BME280;22123;52.412;20.970;2024-02-14T02:45:58;101170.78;;;-1.63;100.00
36062;BME280;22123;52.412;20.970;2024-02-14T02:48:24;101194.00;;;-1.52;100.00
36062;BME280;22123;52.412;20.970;2024-02-14T02:50:51;101221.53;;;-1.39;100.00
36062;BME280;22123;52.412;20.970;2024-02-14T02:53:17;101204.47;;;-1.51;100.00
36062;BME280;22123;52.412;20.970;2024-02-14T02:55:43;101192.03;;;-1.66;100.00
36062;BME280;22123;52.412;20.970;2024-02-14T02:58:10;101177.59;;;-1.77;100.00
36062;BME280;22123;52.412;20.970;2024-02-14T03:00:36;101243.81;;;-1.45;100.00
36062;BME280;22123;52.412;20.970;2024-02-14T03:03:01;101193.63;;;-1.81;100.00
36062;BME280;22123;52.412;20.970;2024-02-14T03:05:28;101222.00;;;-1.67;100.00
36062;BME280;22123;52.412;20.970;2024-02-14T03:07:53;101230.50;;;-1.61;100.00
36062;BME280;22123;52.412;20.970;2024-02-14T03:10:19;101200.94;;;-1.86;100.00
36062;BME280;22123;52.412;20.970;2024-02-14T03:12:47;101217.28;;;-1.78;100.00
36062;BME280;22123;52.412;20.970;2024-02-14T03:15:13;101197.66;;;-1.92;100.00
36062;BME280;22123;52.412;20.970;2024-02-14T03:17:39;101222.97;;;-1.87;100.00
36062;BME280;22123;52.412;20.970;2024-02-14T03:20:05;101230.97;;;-1.89;100.00
36062;BME280;22123;52.412;20.970;2024-02-14T03:22:31;101223.19;;;-1.92;100.00
36062;BME280;22123;52.412;20.970;2024-02-14T03:24:57;101200.38;;;-2.12;100.00
36062;BME280;22123;52.412;20.970;2024-02-14T03:27:23;101232.97;;;-1.94;100.00
36062;BME280;22123;52.412;20.970;2024-02-14T03:29:49;101194.53;;;-2.19;100.00
36062;BME280;22123;52.412;20.970;2024-02-14T03:32:15;101220.28;;;-2.05;100.00
36062;BME280;22123;52.412;20.970;2024-02-14T03:34:41;101220.44;;;-2.08;100.00
36062;BME280;22123;52.412;20.970;2024-02-14T03:37:07;101221.50;;;-2.12;100.00
36062;BME280;22123;52.412;20.970;2024-02-14T03:39:32;101259.94;;;-1.87;100.00
36062;BME280;22123;52.412;20.970;2024-02-14T03:41:59;101251.66;;;-1.99;100.00
36062;BME280;22123;52.412;20.970;2024-02-14T03:44:25;101192.84;;;-2.39;100.00
36062;BME280;22123;52.412;20.970;2024-02-14T03:46:51;101222.78;;;-2.21;100.00
36062;BME280;22123;52.412;20.970;2024-02-14T03:49:17;101211.09;;;-2.34;100.00
36062;BME280;22123;52.412;20.970;2024-02-14T03:51:42;101231.47;;;-2.19;100.00
36062;BME280;22123;52.412;20.970;2024-02-14T03:54:08;101217.38;;;-2.37;100.00
36062;BME280;22123;52.412;20.970;2024-02-14T03:56:34;101243.22;;;-2.26;100.00
36062;BME280;22123;52.412;20.970;2024-02-14T03:59:00;101215.94;;;-2.44;100.00
36062;BME280;22123;52.412;20.970;2024-02-14T04:01:26;101263.00;;;-2.16;100.00
36062;BME280;22123;52.412;20.970;2024-02-14T04:03:52;101263.00;;;-2.16;100.00
36062;BME280;22123;52.412;20.970;2024-02-14T04:06:18;101217.88;;;-2.48;100.00
36062;BME280;22123;52.412;20.970;2024-02-14T04:08:44;101215.50;;;-2.54;100.00
36062;BME280;22123;52.412;20.970;2024-02-14T04:11:10;101285.81;;;-2.15;100.00
36062;BME280;22123;52.412;20.970;2024-02-14T04:13:35;101220.53;;;-2.49;100.00
36062;BME280;22123;52.412;20.970;2024-02-14T04:16:01;101244.94;;;-2.44;100.00
36062;BME280;22123;52.412;20.970;2024-02-14T04:18:27;101256.06;;;-2.37;100.00
36062;BME280;22123;52.412;20.970;2024-02-14T04:20:53;101274.88;;;-2.26;100.00
36062;BME280;22123;52.412;20.970;2024-02-14T04:23:19;101257.84;;;-2.38;100.00
36062;BME280;22123;52.412;20.970;2024-02-14T04:25:45;101301.84;;;-2.19;100.00
36062;BME280;22123;52.412;20.970;2024-02-14T04:28:11;101245.16;;;-2.49;100.00
36062;BME280;22123;52.412;20.970;2024-02-14T04:30:37;101299.44;;;-2.24;100.00
36062;BME280;22123;52.412;20.970;2024-02-14T04:33:03;101216.53;;;-2.77;100.00
36062;BME280;22123;52.412;20.970;2024-02-14T04:35:29;101275.75;;;-2.45;100.00
36062;BME280;22123;52.412;20.970;2024-02-14T04:37:55;101273.09;;;-2.45;100.00
36062;BME280;22123;52.412;20.970;2024-02-14T04:40:21;101282.38;;;-2.36;100.00
36062;BME280;22123;52.412;20.970;2024-02-14T04:42:47;101295.50;;;-2.34;100.00
36062;BME280;22123;52.412;20.970;2024-02-14T04:45:12;101299.06;;;-2.35;100.00
36062;BME280;22123;52.412;20.970;2024-02-14T04:47:39;101270.72;;;-2.51;100.00
36062;BME280;22123;52.412;20.970;2024-02-14T04:50:05;101286.22;;;-2.43;100.00
36062;BME280;22123;52.412;20.970;2024-02-14T04:52:31;101266.56;;;-2.56;100.00
36062;BME280;22123;52.412;20.970;2024-02-14T04:54:57;101267.50;;;-2.57;100.00
36062;BME280;22123;52.412;20.970;2024-02-14T04:57:23;101294.00;;;-2.40;100.00
36062;BME280;22123;52.412;20.970;2024-02-14T04:59:49;101265.16;;;-2.64;100.00
36062;BME280;22123;52.412;20.970;2024-02-14T05:02:15;101201.78;;;-3.02;100.00
36062;BME280;22123;52.412;20.970;2024-02-14T05:04:40;101284.84;;;-2.52;100.00
36062;BME280;22123;52.412;20.970;2024-02-14T05:07:06;101279.13;;;-2.62;100.00
36062;BME280;22123;52.412;20.970;2024-02-14T05:09:32;101318.44;;;-2.36;100.00
36062;BME280;22123;52.412;20.970;2024-02-14T05:11:58;101222.72;;;-2.99;100.00
36062;BME280;22123;52.412;20.970;2024-02-14T05:14:25;101306.56;;;-2.47;100.00
36062;BME280;22123;52.412;20.970;2024-02-14T05:16:51;101283.53;;;-2.62;100.00
36062;BME280;22123;52.412;20.970;2024-02-14T05:19:17;101270.75;;;-2.71;100.00
36062;BME280;22123;52.412;20.970;2024-02-14T05:21:43;101327.41;;;-2.40;100.00
36062;BME280;22123;52.412;20.970;2024-02-14T05:24:09;101314.56;;;-2.48;100.00
36062;BME280;22123;52.412;20.970;2024-02-14T05:26:35;101324.75;;;-2.40;100.00
36062;BME280;22123;52.412;20.970;2024-02-14T05:29:01;101325.63;;;-2.40;100.00
36062;BME280;22123;52.412;20.970;2024-02-14T05:31:42;101317.94;;;-2.45;100.00
36062;BME280;22123;52.412;20.970;2024-02-14T05:34:08;101315.38;;;-2.46;100.00
36062;BME280;22123;52.412;20.970;2024-02-14T05:36:34;101304.34;;;-2.56;100.00
36062;BME280;22123;52.412;20.970;2024-02-14T05:39:00;101222.09;;;-3.04;100.00
36062;BME280;22123;52.412;20.970;2024-02-14T05:41:26;101270.03;;;-2.75;100.00
36062;BME280;22123;52.412;20.970;2024-02-14T05:43:52;101295.63;;;-2.58;100.00
36062;BME280;22123;52.412;20.970;2024-02-14T05:46:18;101325.91;;;-2.46;100.00
36062;BME280;22123;52.412;20.970;2024-02-14T05:48:44;101311.53;;;-2.59;100.00
36062;BME280;22123;52.412;20.970;2024-02-14T05:51:09;101299.66;;;-2.70;100.00
36062;BME280;22123;52.412;20.970;2024-02-14T05:53:35;101323.03;;;-2.60;100.00
36062;BME280;22123;52.412;20.970;2024-02-14T05:56:01;101345.06;;;-2.42;100.00
36062;BME280;22123;52.412;20.970;2024-02-14T05:58:27;101319.50;;;-2.61;100.00
36062;BME280;22123;52.412;20.970;2024-02-14T06:00:53;101274.97;;;-2.88;100.00
36062;BME280;22123;52.412;20.970;2024-02-14T06:03:19;101315.28;;;-2.65;100.00
36062;BME280;22123;52.412;20.970;2024-02-14T06:05:45;101282.69;;;-2.83;100.00
36062;BME280;22123;52.412;20.970;2024-02-14T06:08:11;101289.53;;;-2.79;100.00
36062;BME280;22123;52.412;20.970;2024-02-14T06:10:36;101358.88;;;-2.36;100.00
36062;BME280;22123;52.412;20.970;2024-02-14T06:13:02;101318.59;;;-2.60;100.00
36062;BME280;22123;52.412;20.970;2024-02-14T06:15:28;101349.31;;;-2.38;100.00
36062;BME280;22123;52.412;20.970;2024-02-14T06:17:54;101368.28;;;-2.30;100.00
36062;BME280;22123;52.412;20.970;2024-02-14T06:20:20;101359.38;;;-2.28;100.00
36062;BME280;22123;52.412;20.970;2024-02-14T06:22:46;101364.56;;;-2.26;100.00
36062;BME280;22123;52.412;20.970;2024-02-14T06:25:12;101306.94;;;-2.54;100.00
36062;BME280;22123;52.412;20.970;2024-02-14T06:27:38;101370.31;;;-2.16;100.00
36062;BME280;22123;52.412;20.970;2024-02-14T06:30:04;101316.06;;;-2.42;100.00
36062;BME280;22123;52.412;20.970;2024-02-14T06:32:30;101367.06;;;-2.02;100.00
36062;BME280;22123;52.412;20.970;2024-02-14T06:34:56;101364.13;;;-1.96;100.00
36062;BME280;22123;52.412;20.970;2024-02-14T06:37:22;101352.00;;;-2.00;100.00
36062;BME280;22123;52.412;20.970;2024-02-14T06:39:47;101346.59;;;-1.97;100.00
36062;BME280;22123;52.412;20.970;2024-02-14T06:42:14;101295.72;;;-2.20;100.00
36062;BME280;22123;52.412;20.970;2024-02-14T06:44:40;101365.09;;;-1.78;100.00
36062;BME280;22123;52.412;20.970;2024-02-14T06:47:06;101319.34;;;-1.98;100.00
36062;BME280;22123;52.412;20.970;2024-02-14T06:49:32;101337.28;;;-1.85;100.00
36062;BME280;22123;52.412;20.970;2024-02-14T06:51:58;101343.19;;;-1.80;100.00
36062;BME280;22123;52.412;20.970;2024-02-14T06:54:23;101370.22;;;-1.56;100.00
36062;BME280;22123;52.412;20.970;2024-02-14T06:56:49;101324.63;;;-1.79;100.00
36062;BME280;22123;52.412;20.970;2024-02-14T06:59:15;101314.97;;;-1.80;100.00
36062;BME280;22123;52.412;20.970;2024-02-14T07:01:41;101342.09;;;-1.57;100.00
36062;BME280;22123;52.412;20.970;2024-02-14T07:04:07;101310.13;;;-1.70;100.00
36062;BME280;22123;52.412;20.970;2024-02-14T07:06:33;101363.72;;;-1.30;100.00
36062;BME280;22123;52.412;20.970;2024-02-14T07:08:59;101337.03;;;-1.43;100.00
36062;BME280;22123;52.412;20.970;2024-02-14T07:11:25;101362.19;;;-1.16;100.00
36062;BME280;22123;52.412;20.970;2024-02-14T07:13:51;101346.06;;;-1.29;100.00
36062;BME280;22123;52.412;20.970;2024-02-14T07:16:16;101370.53;;;-1.07;100.00
36062;BME280;22123;52.412;20.970;2024-02-14T07:18:42;101320.44;;;-1.27;100.00
36062;BME280;22123;52.412;20.970;2024-02-14T07:21:08;101325.50;;;-1.23;100.00
36062;BME280;22123;52.412;20.970;2024-02-14T07:23:34;101325.41;;;-1.21;100.00
36062;BME280;22123;52.412;20.970;2024-02-14T07:26:00;101371.41;;;-0.89;100.00
36062;BME280;22123;52.412;20.970;2024-02-14T07:28:26;101335.00;;;-1.01;100.00
36062;BME280;22123;52.412;20.970;2024-02-14T07:30:52;101325.19;;;-0.99;100.00
36062;BME280;22123;52.412;20.970;2024-02-14T07:33:18;101375.59;;;-0.67;100.00
36062;BME280;22123;52.412;20.970;2024-02-14T07:35:44;101354.38;;;-0.65;100.00
36062;BME280;22123;52.412;20.970;2024-02-14T07:38:10;101371.19;;;-0.49;100.00
36062;BME280;22123;52.412;20.970;2024-02-14T07:40:35;101333.06;;;-0.62;100.00
36062;BME280;22123;52.412;20.970;2024-02-14T07:43:01;101325.06;;;-0.61;100.00
36062;BME280;22123;52.412;20.970;2024-02-14T07:45:27;101353.31;;;-0.28;100.00
36062;BME280;22123;52.412;20.970;2024-02-14T07:47:53;101379.38;;;-0.03;100.00
36062;BME280;22123;52.412;20.970;2024-02-14T07:50:19;101353.50;;;0.03;100.00
36062;BME280;22123;52.412;20.970;2024-02-14T07:52:45;101346.13;;;0.25;100.00
36062;BME280;22123;52.412;20.970;2024-02-14T07:55:11;101356.03;;;0.54;100.00
36062;BME280;22123;52.412;20.970;2024-02-14T07:57:38;101377.91;;;0.89;100.00
36062;BME280;22123;52.412;20.970;2024-02-14T08:00:05;101297.38;;;0.76;100.00
36062;BME280;22123;52.412;20.970;2024-02-14T08:02:31;101316.44;;;1.13;100.00
36062;BME280;22123;52.412;20.970;2024-02-14T08:04:57;101329.59;;;1.59;100.00
36062;BME280;22123;52.412;20.970;2024-02-14T08:07:23;101328.69;;;1.74;100.00
36062;BME280;22123;52.412;20.970;2024-02-14T08:09:49;101316.53;;;1.99;100.00
36062;BME280;22123;52.412;20.970;2024-02-14T08:12:15;101378.44;;;2.57;100.00
36062;BME280;22123;52.412;20.970;2024-02-14T08:14:41;101352.69;;;2.72;100.00
36062;BME280;22123;52.412;20.970;2024-02-14T08:17:07;101347.13;;;2.90;100.00
36062;BME280;22123;52.412;20.970;2024-02-14T08:19:33;101322.97;;;2.93;100.00
36062;BME280;22123;52.412;20.970;2024-02-14T08:21:59;101350.63;;;3.30;100.00
36062;BME280;22123;52.412;20.970;2024-02-14T08:24:25;101353.81;;;3.36;100.00
36062;BME280;22123;52.412;20.970;2024-02-14T08:26:51;101342.09;;;3.25;100.00
36062;BME280;22123;52.412;20.970;2024-02-14T08:29:17;101326.69;;;3.30;100.00
36062;BME280;22123;52.412;20.970;2024-02-14T08:31:43;101348.53;;;3.48;100.00
36062;BME280;22123;52.412;20.970;2024-02-14T08:34:09;101343.50;;;3.44;100.00
36062;BME280;22123;52.412;20.970;2024-02-14T08:36:35;101362.50;;;3.65;100.00
36062;BME280;22123;52.412;20.970;2024-02-14T08:39:01;101379.97;;;3.95;100.00
36062;BME280;22123;52.412;20.970;2024-02-14T08:41:27;101340.22;;;3.79;100.00
36062;BME280;22123;52.412;20.970;2024-02-14T08:43:53;101358.31;;;3.99;100.00
36062;BME280;22123;52.412;20.970;2024-02-14T08:46:19;101350.88;;;3.79;100.00
36062;BME280;22123;52.412;20.970;2024-02-14T08:48:44;101335.00;;;3.77;100.00
36062;BME280;22123;52.412;20.970;2024-02-14T08:51:11;101354.28;;;3.94;100.00
36062;BME280;22123;52.412;20.970;2024-02-14T08:53:37;101377.75;;;4.14;100.00
36062;BME280;22123;52.412;20.970;2024-02-14T08:56:03;101369.63;;;4.16;100.00
36062;BME280;22123;52.412;20.970;2024-02-14T08:58:29;101333.63;;;3.85;100.00
36062;BME280;22123;52.412;20.970;2024-02-14T09:00:55;101347.06;;;3.96;100.00
36062;BME280;22123;52.412;20.970;2024-02-14T09:03:21;101352.88;;;4.01;100.00
36062;BME280;22123;52.412;20.970;2024-02-14T09:05:47;101331.41;;;3.91;100.00
36062;BME280;22123;52.412;20.970;2024-02-14T09:08:13;101358.66;;;4.08;100.00
36062;BME280;22123;52.412;20.970;2024-02-14T09:10:39;101368.75;;;4.15;100.00
36062;BME280;22123;52.412;20.970;2024-02-14T09:13:05;101377.47;;;4.43;100.00
36062;BME280;22123;52.412;20.970;2024-02-14T09:15:30;101340.81;;;4.34;100.00
36062;BME280;22123;52.412;20.970;2024-02-14T09:17:56;101378.50;;;4.66;100.00
36062;BME280;22123;52.412;20.970;2024-02-14T09:20:22;101367.91;;;4.65;100.00
36062;BME280;22123;52.412;20.970;2024-02-14T09:22:48;101347.06;;;4.46;100.00
36062;BME280;22123;52.412;20.970;2024-02-14T09:25:14;101364.63;;;4.61;100.00
36062;BME280;22123;52.412;20.970;2024-02-14T09:27:40;101360.78;;;4.65;100.00
36062;BME280;22123;52.412;20.970;2024-02-14T09:30:07;101339.25;;;4.56;100.00
36062;BME280;22123;52.412;20.970;2024-02-14T09:32:33;101319.50;;;4.58;100.00
36062;BME280;22123;52.412;20.970;2024-02-14T09:34:59;101366.88;;;4.92;100.00
36062;BME280;22123;52.412;20.970;2024-02-14T09:37:26;101368.41;;;5.07;100.00
36062;BME280;22123;52.412;20.970;2024-02-14T09:39:52;101340.22;;;5.03;100.00
36062;BME280;22123;52.412;20.970;2024-02-14T09:42:28;101336.69;;;5.02;100.00
36062;BME280;22123;52.412;20.970;2024-02-14T09:44:58;101368.25;;;5.33;100.00
36062;BME280;22123;52.412;20.970;2024-02-14T09:47:25;101315.25;;;5.04;100.00
36062;BME280;22123;52.412;20.970;2024-02-14T09:49:54;101317.81;;;5.17;100.00
36062;BME280;22123;52.412;20.970;2024-02-14T09:52:21;101347.78;;;5.45;100.00
36062;BME280;22123;52.412;20.970;2024-02-14T09:54:47;101343.06;;;5.48;100.00
36062;BME280;22123;52.412;20.970;2024-02-14T09:57:13;101337.00;;;5.69;100.00
36062;BME280;22123;52.412;20.970;2024-02-14T09:59:40;101318.94;;;5.72;100.00
36062;BME280;22123;52.412;20.970;2024-02-14T10:02:07;101359.03;;;5.95;100.00
36062;BME280;22123;52.412;20.970;2024-02-14T10:04:32;101360.78;;;6.07;100.00
36062;BME280;22123;52.412;20.970;2024-02-14T10:06:58;101358.69;;;6.11;100.00
36062;BME280;22123;52.412;20.970;2024-02-14T10:09:25;101335.84;;;6.18;100.00
36062;BME280;22123;52.412;20.970;2024-02-14T10:11:51;101315.47;;;6.17;100.00
36062;BME280;22123;52.412;20.970;2024-02-14T10:14:17;101342.06;;;6.30;100.00
36062;BME280;22123;52.412;20.970;2024-02-14T10:16:43;101320.81;;;6.17;100.00
36062;BME280;22123;52.412;20.970;2024-02-14T10:19:15;101320.19;;;6.25;100.00
36062;BME280;22123;52.412;20.970;2024-02-14T10:21:41;101356.97;;;6.55;100.00
36062;BME280;22123;52.412;20.970;2024-02-14T10:24:08;101326.47;;;6.47;100.00
36062;BME280;22123;52.412;20.970;2024-02-14T10:26:33;101261.13;;;6.17;100.00
36062;BME280;22123;52.412;20.970;2024-02-14T10:28:59;101330.31;;;6.76;100.00
36062;BME280;22123;52.412;20.970;2024-02-14T10:31:26;101295.56;;;6.54;100.00
36062;BME280;22123;52.412;20.970;2024-02-14T10:33:54;101316.16;;;6.86;100.00
36062;BME280;22123;52.412;20.970;2024-02-14T10:36:21;101316.13;;;6.97;100.00
36062;BME280;22123;52.412;20.970;2024-02-14T10:38:47;101338.56;;;7.17;100.00
36062;BME280;22123;52.412;20.970;2024-02-14T10:41:13;101332.03;;;7.31;100.00
36062;BME280;22123;52.412;20.970;2024-02-14T10:43:40;101335.38;;;7.44;100.00
36062;BME280;22123;52.412;20.970;2024-02-14T10:46:08;101306.75;;;7.45;100.00
36062;BME280;22123;52.412;20.970;2024-02-14T10:48:38;101333.84;;;7.73;100.00
36062;BME280;22123;52.412;20.970;2024-02-14T10:51:05;101331.88;;;7.75;100.00
36062;BME280;22123;52.412;20.970;2024-02-14T10:53:33;101294.81;;;7.80;100.00
36062;BME280;22123;52.412;20.970;2024-02-14T10:56:00;101321.38;;;8.24;100.00
36062;BME280;22123;52.412;20.970;2024-02-14T10:58:28;101317.31;;;8.90;100.00
36062;BME280;22123;52.412;20.970;2024-02-14T11:00:55;101296.34;;;9.42;100.00
36062;BME280;22123;52.412;20.970;2024-02-14T11:03:22;101305.56;;;10.52;100.00
36062;BME280;22123;52.412;20.970;2024-02-14T11:05:49;101316.72;;;11.74;100.00
36062;BME280;22123;52.412;20.970;2024-02-14T11:08:18;101272.97;;;12.31;100.00
36062;BME280;22123;52.412;20.970;2024-02-14T11:10:55;101265.75;;;12.40;100.00
36062;BME280;22123;52.412;20.970;2024-02-14T11:13:21;101269.22;;;12.75;100.00
36062;BME280;22123;52.412;20.970;2024-02-14T11:15:47;101304.56;;;13.39;100.00
36062;BME280;22123;52.412;20.970;2024-02-14T11:18:12;101286.06;;;13.76;100.00
36062;BME280;22123;52.412;20.970;2024-02-14T11:20:38;101267.63;;;13.79;100.00
36062;BME280;22123;52.412;20.970;2024-02-14T11:23:06;101273.63;;;13.09;100.00
36062;BME280;22123;52.412;20.970;2024-02-14T11:25:33;101271.59;;;13.02;100.00
36062;BME280;22123;52.412;20.970;2024-02-14T11:28:00;101265.66;;;13.23;100.00
36062;BME280;22123;52.412;20.970;2024-02-14T11:30:30;101272.06;;;13.72;100.00
36062;BME280;22123;52.412;20.970;2024-02-14T11:35:42;101292.59;;;14.37;100.00
36062;BME280;22123;52.412;20.970;2024-02-14T11:38:08;101276.31;;;14.46;100.00
36062;BME280;22123;52.412;20.970;2024-02-14T11:40:36;101234.78;;;14.22;100.00
36062;BME280;22123;52.412;20.970;2024-02-14T11:43:02;101285.72;;;14.58;100.00
36062;BME280;22123;52.412;20.970;2024-02-14T11:45:27;101285.41;;;14.84;100.00
36062;BME280;22123;52.412;20.970;2024-02-14T11:47:54;101261.91;;;15.38;78.16
36062;BME280;22123;52.412;20.970;2024-02-14T11:50:20;101248.44;;;15.44;80.78
36062;BME280;22123;52.412;20.970;2024-02-14T11:52:46;101253.13;;;15.36;76.07
36062;BME280;22123;52.412;20.970;2024-02-14T11:55:12;101240.50;;;15.43;74.41
36062;BME280;22123;52.412;20.970;2024-02-14T11:57:38;101275.91;;;15.64;69.94
36062;BME280;22123;52.412;20.970;2024-02-14T12:00:04;101246.44;;;14.85;68.37
36062;BME280;22123;52.412;20.970;2024-02-14T12:02:30;101263.78;;;14.44;68.02
36062;BME280;22123;52.412;20.970;2024-02-14T12:04:56;101247.91;;;14.41;67.12
36062;BME280;22123;52.412;20.970;2024-02-14T12:07:22;101279.31;;;14.82;66.20
36062;BME280;22123;52.412;20.970;2024-02-14T12:09:48;101248.97;;;14.87;70.36
36062;BME280;22123;52.412;20.970;2024-02-14T12:12:14;101279.09;;;14.69;63.83
36062;BME280;22123;52.412;20.970;2024-02-14T12:14:40;101265.41;;;14.85;67.09
36062;BME280;22123;52.412;20.970;2024-02-14T12:17:06;101272.84;;;15.29;67.45
36062;BME280;22123;52.412;20.970;2024-02-14T12:19:32;101216.59;;;15.08;65.76
36062;BME280;22123;52.412;20.970;2024-02-14T12:21:58;101248.19;;;14.78;61.81
36062;BME280;22123;52.412;20.970;2024-02-14T12:24:27;101245.00;;;14.74;65.69
36062;BME280;22123;52.412;20.970;2024-02-14T12:26:53;101243.22;;;14.27;64.04
36062;BME280;22123;52.412;20.970;2024-02-14T12:29:19;101276.03;;;13.93;64.54
36062;BME280;22123;52.412;20.970;2024-02-14T12:31:45;101246.88;;;13.55;62.82